Pagina principală
METAR-TAF:

METAR-TAF

Aeroporturi :

Midway, Statele Unite ale Americii

Latitudine: 28-13N, longitudine: 177-22W, elevație: 4 m

METAR: lipsă

Ora: 02:42 (12:42 UTC)

Prognoză

Raportul a fost făcut în urmă cu 1 oră și 22 de minute, la 11:20 UTC
Prognoză valabilă de la 16 ora 12 UTC la 17 ora 12 UTC
Vânt 5 kt de la Sud-vest
Vizibilitate: 10 km
Nori puțini la o înălțime de 2500 picior
Nori fragmentați la o înălțime de 4000 picior
averse în apropiere,

TAF: PMDY 161120Z 1612/1712 22005KT P6SM VCSH FEW025 BKN040 AMD NOT SKED

Observații și prognoze meteo pentru peste 4.000 de aeroporturi (rapoarte METAR și TAF).

Stațiile disponibile sunt reprezentate pe hartă prin puncte galbene și roșii.

Țineți indicatorul mouse-ului pe punctul dorit pentru a vedea denumirea stației.

Apoi, faceți clic pentru a vedea observațiile și prognozele meteorologice.

Pentru a schimba harta: Pentru mărire, faceți clic pe butoanele verzi cu cruce neagră; pentru micșorare, pe butonul verde cu o liniuță; pentru hărți învecinate, pe săgețile verzi.


METAR-TAF: